createdAt,value
2018-07-14T00:01:43.829Z,102094.00
2018-07-14T00:04:14.028Z,102096.00
2018-07-14T00:06:44.255Z,102098.00
2018-07-14T00:09:14.489Z,102096.00
2018-07-14T00:11:44.674Z,102102.00
2018-07-14T00:14:14.866Z,102096.00
2018-07-14T00:16:45.057Z,102098.00
2018-07-14T00:19:15.273Z,102093.00
2018-07-14T00:21:45.485Z,102094.00
2018-07-14T00:24:15.799Z,102095.00
2018-07-14T00:26:45.973Z,102090.00
2018-07-14T00:29:16.210Z,102091.00
2018-07-14T00:31:46.441Z,102091.00
2018-07-14T00:34:16.675Z,102086.00
2018-07-14T00:36:46.905Z,102086.00
2018-07-14T00:39:17.231Z,102081.00
2018-07-14T00:41:47.623Z,102079.00
2018-07-14T00:44:17.859Z,102074.00
2018-07-14T00:46:48.058Z,102076.00
2018-07-14T00:49:18.429Z,102079.00
2018-07-14T00:51:48.630Z,102080.00
2018-07-14T00:54:18.914Z,102087.00
2018-07-14T00:56:49.251Z,102083.00
2018-07-14T00:59:19.467Z,102076.00
2018-07-14T01:01:49.667Z,102079.00
2018-07-14T01:04:19.856Z,102077.00
2018-07-14T01:06:50.098Z,102075.00
2018-07-14T01:09:20.321Z,102072.00
2018-07-14T01:11:50.563Z,102070.00
2018-07-14T01:14:20.750Z,102070.00
2018-07-14T01:16:50.974Z,102073.00
2018-07-14T01:19:21.185Z,102076.00
2018-07-14T01:21:51.383Z,102081.00
2018-07-14T01:24:23.522Z,102078.00
2018-07-14T01:26:54.525Z,102077.00
2018-07-14T01:29:31.473Z,102081.00
2018-07-14T01:32:01.697Z,102079.00
2018-07-14T01:34:31.897Z,102070.00
2018-07-14T01:37:02.124Z,102071.00
2018-07-14T01:39:32.322Z,102075.00
2018-07-14T01:42:02.524Z,102066.00
2018-07-14T01:44:32.792Z,102070.00
2018-07-14T01:47:03.035Z,102069.00
2018-07-14T01:49:33.222Z,102069.00
2018-07-14T01:52:03.446Z,102066.00
2018-07-14T01:54:33.650Z,102065.00
2018-07-14T01:57:03.903Z,102068.00
2018-07-14T01:59:34.105Z,102069.00
2018-07-14T02:02:04.587Z,102071.00
2018-07-14T02:04:34.741Z,102077.00
2018-07-14T02:07:05.005Z,102073.00
2018-07-14T02:09:35.247Z,102078.00
2018-07-14T02:12:05.455Z,102073.00
2018-07-14T02:14:36.959Z,102072.00
2018-07-14T02:17:07.165Z,102070.00
2018-07-14T02:19:37.365Z,102069.00
2018-07-14T02:22:07.550Z,102072.00
2018-07-14T02:24:37.810Z,102069.00
2018-07-14T02:27:08.023Z,102070.00
2018-07-14T02:29:38.242Z,102072.00
2018-07-14T02:32:08.446Z,102067.00
2018-07-14T02:34:38.678Z,102063.00
2018-07-14T02:37:08.834Z,102063.00
2018-07-14T02:39:39.050Z,102059.00
2018-07-14T02:42:09.289Z,102062.00
2018-07-14T02:44:39.513Z,102064.00
2018-07-14T02:47:09.721Z,102068.00
2018-07-14T02:49:40.111Z,102071.00
2018-07-14T02:52:10.336Z,102073.00
2018-07-14T02:54:40.557Z,102069.00
2018-07-14T02:57:10.734Z,102066.00
2018-07-14T02:59:41.169Z,102070.00
2018-07-14T03:02:11.368Z,102075.00
2018-07-14T03:04:41.603Z,102067.00
2018-07-14T03:07:11.854Z,102073.00
2018-07-14T03:09:42.074Z,102071.00
2018-07-14T03:12:12.459Z,102071.00
2018-07-14T03:14:42.705Z,102077.00
2018-07-14T03:17:13.100Z,102078.00
2018-07-14T03:19:43.357Z,102077.00
2018-07-14T03:22:13.557Z,102080.00
2018-07-14T03:24:43.807Z,102083.00
2018-07-14T03:27:14.035Z,102079.00
2018-07-14T03:29:44.441Z,102082.00
2018-07-14T03:32:14.650Z,102079.00
2018-07-14T03:34:44.874Z,102079.00
2018-07-14T03:37:15.093Z,102076.00
2018-07-14T03:39:45.260Z,102080.00
2018-07-14T03:42:15.531Z,102077.00
2018-07-14T03:44:45.764Z,102078.00
2018-07-14T03:47:16.149Z,102077.00
2018-07-14T03:49:46.408Z,102074.00
2018-07-14T03:52:16.645Z,102081.00
2018-07-14T03:54:47.114Z,102078.00
2018-07-14T03:57:17.307Z,102083.00
2018-07-14T03:59:47.518Z,102079.00
2018-07-14T04:02:17.703Z,102075.00
2018-07-14T04:04:48.005Z,102076.00
2018-07-14T04:07:18.237Z,102072.00
2018-07-14T04:09:48.467Z,102073.00
2018-07-14T04:12:18.677Z,102073.00
2018-07-14T04:14:48.971Z,102071.00
2018-07-14T04:17:19.111Z,102069.00
2018-07-14T04:19:49.362Z,102066.00
2018-07-14T04:22:19.598Z,102073.00
2018-07-14T04:24:49.847Z,102073.00
2018-07-14T04:27:20.129Z,102074.00
2018-07-14T04:29:50.456Z,102082.00
2018-07-14T04:32:20.782Z,102079.00
2018-07-14T04:34:51.024Z,102073.00
2018-07-14T04:37:21.255Z,102077.00
2018-07-14T04:39:51.545Z,102077.00
2018-07-14T04:42:21.826Z,102073.00
2018-07-14T04:44:52.018Z,102075.00
2018-07-14T04:47:22.278Z,102078.00
2018-07-14T04:49:52.478Z,102078.00
2018-07-14T04:52:22.774Z,102073.00
2018-07-14T04:54:53.101Z,102078.00
2018-07-14T04:57:23.339Z,102078.00
2018-07-14T04:59:53.884Z,102081.00
2018-07-14T05:02:24.979Z,102079.00
2018-07-14T05:04:55.257Z,102084.00
2018-07-14T05:07:25.595Z,102084.00
2018-07-14T05:09:55.851Z,102083.00
2018-07-14T05:12:26.099Z,102083.00
2018-07-14T05:14:56.343Z,102085.00
2018-07-14T05:17:26.604Z,102084.00
2018-07-14T05:19:56.929Z,102085.00
2018-07-14T05:22:27.379Z,102093.00
2018-07-14T05:24:57.630Z,102091.00
2018-07-14T05:27:27.917Z,102087.00
2018-07-14T05:29:58.170Z,102095.00
2018-07-14T05:32:28.434Z,102091.00
2018-07-14T05:34:58.746Z,102097.00
2018-07-14T05:37:29.005Z,102090.00
2018-07-14T05:39:59.249Z,102087.00
2018-07-14T05:42:29.657Z,102092.00
2018-07-14T05:44:59.973Z,102086.00
2018-07-14T05:47:30.205Z,102084.00
2018-07-14T05:50:00.800Z,102082.00
2018-07-14T05:52:31.075Z,102084.00
2018-07-14T05:55:01.386Z,102089.00
2018-07-14T05:57:31.686Z,102094.00
2018-07-14T06:00:01.971Z,102088.00
2018-07-14T06:02:32.221Z,102093.00
2018-07-14T06:05:02.540Z,102102.00
2018-07-14T06:07:32.830Z,102092.00
2018-07-14T06:10:03.171Z,102090.00
2018-07-14T06:12:33.640Z,102095.00
2018-07-14T06:15:04.243Z,102100.00
2018-07-14T06:17:34.549Z,102113.00
2018-07-14T06:20:05.097Z,102113.00
2018-07-14T06:22:35.493Z,102117.00
2018-07-14T06:25:06.068Z,102110.00
2018-07-14T06:27:36.348Z,102105.00
2018-07-14T06:30:08.486Z,102106.00
2018-07-14T06:32:38.818Z,102109.00
2018-07-14T06:35:09.142Z,102109.00
2018-07-14T06:37:39.589Z,102107.00
2018-07-14T06:40:09.793Z,102109.00
2018-07-14T06:42:40.070Z,102114.00
2018-07-14T06:45:10.376Z,102120.00
2018-07-14T06:47:40.698Z,102120.00
2018-07-14T06:50:10.975Z,102122.00
2018-07-14T06:52:41.331Z,102118.00
2018-07-14T06:55:11.622Z,102121.00
2018-07-14T06:57:41.935Z,102133.00
2018-07-14T07:00:12.182Z,102134.00
2018-07-14T07:02:42.481Z,102133.00
2018-07-14T07:05:12.760Z,102135.00
2018-07-14T07:07:43.023Z,102135.00
2018-07-14T07:10:13.282Z,102140.00
2018-07-14T07:12:43.859Z,102138.00
2018-07-14T07:15:14.099Z,102140.00
2018-07-14T07:17:44.449Z,102145.00
2018-07-14T07:20:14.717Z,102142.00
2018-07-14T07:22:45.014Z,102145.00
2018-07-14T07:25:15.284Z,102148.00
2018-07-14T07:27:45.725Z,102151.00
2018-07-14T07:30:15.952Z,102150.00
2018-07-14T07:32:46.253Z,102150.00
2018-07-14T07:35:16.506Z,102148.00
2018-07-14T07:37:46.833Z,102155.00
2018-07-14T07:40:17.101Z,102157.00
2018-07-14T07:42:47.437Z,102153.00
2018-07-14T07:45:17.694Z,102155.00
2018-07-14T07:47:48.037Z,102163.00
2018-07-14T07:50:18.269Z,102166.00
2018-07-14T07:52:48.706Z,102174.00
2018-07-14T07:55:19.013Z,102171.00
2018-07-14T07:57:49.277Z,102169.00
2018-07-14T08:00:19.570Z,102170.00
2018-07-14T08:02:49.917Z,102165.00
2018-07-14T08:05:20.200Z,102156.00
2018-07-14T08:07:50.490Z,102159.00
2018-07-14T08:10:21.059Z,102161.00
2018-07-14T08:12:51.256Z,102167.00
2018-07-14T08:15:21.488Z,102171.00
2018-07-14T08:17:51.790Z,102167.00
2018-07-14T08:20:22.029Z,102163.00
2018-07-14T08:22:53.462Z,102164.00
2018-07-14T08:25:23.870Z,102168.00
2018-07-14T08:27:54.445Z,102169.00
2018-07-14T08:30:25.838Z,102169.00
2018-07-14T08:32:56.163Z,102170.00
2018-07-14T08:35:26.398Z,102170.00
2018-07-14T08:37:56.728Z,102167.00
2018-07-14T08:40:26.610Z,102165.00
2018-07-14T08:42:57.017Z,102169.00
2018-07-14T08:45:27.297Z,102167.00
2018-07-14T08:47:57.736Z,102160.00
2018-07-14T08:50:28.320Z,102164.00
2018-07-14T08:52:58.564Z,102162.00
2018-07-14T08:55:29.048Z,102158.00
2018-07-14T08:57:59.258Z,102154.00
2018-07-14T09:00:29.564Z,102153.00
2018-07-14T09:02:59.745Z,102154.00
2018-07-14T09:05:29.966Z,102152.00
2018-07-14T09:08:00.242Z,102154.00
2018-07-14T09:10:30.515Z,102159.00
2018-07-14T09:13:00.722Z,102158.00
2018-07-14T09:15:31.178Z,102159.00
2018-07-14T09:18:01.395Z,102157.00
2018-07-14T09:20:31.646Z,102154.00
2018-07-14T09:23:02.053Z,102155.00
2018-07-14T09:25:32.310Z,102154.00
2018-07-14T09:28:02.534Z,102148.00
2018-07-14T09:30:32.757Z,102158.00
2018-07-14T09:33:02.945Z,102158.00
2018-07-14T09:35:33.170Z,102160.00
2018-07-14T09:38:03.529Z,102163.00
2018-07-14T09:40:33.762Z,102161.00
2018-07-14T09:43:04.046Z,102160.00
2018-07-14T09:45:34.510Z,102161.00
2018-07-14T09:48:04.791Z,102161.00
2018-07-14T09:50:35.026Z,102161.00
2018-07-14T09:53:05.274Z,102169.00
2018-07-14T09:55:35.572Z,102165.00
2018-07-14T09:58:06.008Z,102160.00
2018-07-14T10:00:36.626Z,102162.00
2018-07-14T10:03:06.853Z,102161.00
2018-07-14T10:05:37.127Z,102166.00
2018-07-14T10:08:07.380Z,102166.00
2018-07-14T10:10:37.646Z,102169.00
2018-07-14T10:13:07.931Z,102164.00
2018-07-14T10:15:38.097Z,102169.00
2018-07-14T10:18:08.996Z,102165.00
2018-07-14T10:20:39.242Z,102171.00
2018-07-14T10:23:09.445Z,102174.00
2018-07-14T10:25:40.058Z,102164.00
2018-07-14T10:28:10.064Z,102171.00
2018-07-14T10:30:40.320Z,102170.00
2018-07-14T10:33:10.821Z,102163.00
2018-07-14T10:35:41.254Z,102165.00
2018-07-14T10:38:11.552Z,102167.00
2018-07-14T10:40:41.740Z,102169.00
2018-07-14T10:43:11.853Z,102168.00
2018-07-14T10:45:41.937Z,102166.00
2018-07-14T10:48:12.197Z,102164.00
2018-07-14T10:50:42.614Z,102161.00
2018-07-14T10:53:12.825Z,102154.00
2018-07-14T10:55:43.026Z,102159.00
2018-07-14T10:58:13.349Z,102161.00
2018-07-14T11:00:43.741Z,102157.00
2018-07-14T11:03:13.992Z,102153.00
2018-07-14T11:05:44.298Z,102159.00
2018-07-14T11:08:14.739Z,102147.00
2018-07-14T11:10:44.976Z,102148.00
2018-07-14T11:13:15.262Z,102152.00
2018-07-14T11:15:45.569Z,102149.00
2018-07-14T11:18:15.854Z,102149.00
2018-07-14T11:20:46.105Z,102148.00
2018-07-14T11:23:16.373Z,102152.00
2018-07-14T11:25:46.654Z,102150.00
2018-07-14T11:28:16.912Z,102151.00
2018-07-14T11:30:47.174Z,102149.00
2018-07-14T11:33:17.437Z,102144.00
2018-07-14T11:35:47.726Z,102141.00
2018-07-14T11:38:17.970Z,102143.00
2018-07-14T11:40:48.216Z,102146.00
2018-07-14T11:43:18.619Z,102144.00
2018-07-14T11:45:48.862Z,102142.00
2018-07-14T11:48:19.098Z,102140.00
2018-07-14T11:50:49.503Z,102142.00
2018-07-14T11:53:19.935Z,102134.00
2018-07-14T11:55:50.329Z,102137.00
2018-07-14T11:58:20.580Z,102135.00
2018-07-14T12:00:50.927Z,102135.00
2018-07-14T12:03:21.259Z,102134.00
2018-07-14T12:05:51.494Z,102130.00
2018-07-14T12:08:22.739Z,102131.00
2018-07-14T12:10:53.253Z,102121.00
2018-07-14T12:13:23.525Z,102118.00
2018-07-14T12:15:53.824Z,102120.00
2018-07-14T12:18:24.453Z,102115.00
2018-07-14T12:20:54.706Z,102113.00
2018-07-14T12:41:54.327Z,102109.00
2018-07-14T12:44:24.943Z,102087.00
2018-07-14T12:46:56.326Z,102083.00
2018-07-14T12:49:26.948Z,102078.00
2018-07-14T12:51:57.169Z,102078.00
2018-07-14T12:54:27.649Z,102080.00
2018-07-14T12:56:57.630Z,102079.00
2018-07-14T12:59:27.793Z,102078.00
2018-07-14T13:01:58.115Z,102077.00
2018-07-14T13:04:28.385Z,102076.00
2018-07-14T13:06:58.651Z,102074.00
2018-07-14T13:09:28.909Z,102075.00
2018-07-14T13:11:59.493Z,102074.00
2018-07-14T13:14:29.711Z,102072.00
2018-07-14T13:16:59.959Z,102063.00
2018-07-14T13:19:30.262Z,102066.00
2018-07-14T13:22:00.600Z,102065.00
2018-07-14T13:24:31.055Z,102068.00
2018-07-14T13:27:01.312Z,102064.00
2018-07-14T13:29:31.562Z,102063.00
2018-07-14T13:32:01.906Z,102060.00
2018-07-14T13:34:33.977Z,102061.00
2018-07-14T13:37:04.633Z,102060.00
2018-07-14T13:39:34.858Z,102054.00
2018-07-14T13:42:05.967Z,102048.00
2018-07-14T13:44:36.250Z,102047.00
2018-07-14T13:47:06.949Z,102041.00
2018-07-14T13:49:37.150Z,102050.00
2018-07-14T13:52:07.746Z,102047.00
2018-07-14T13:54:37.963Z,102039.00
2018-07-14T13:57:08.662Z,102041.00
2018-07-14T13:59:39.007Z,102044.00
2018-07-14T14:02:09.430Z,102040.00
2018-07-14T14:04:39.663Z,102039.00
2018-07-14T14:07:09.907Z,102036.00
2018-07-14T14:09:41.018Z,102031.00
2018-07-14T14:12:11.433Z,102027.00
2018-07-14T14:14:41.664Z,102026.00
2018-07-14T14:17:11.954Z,102026.00
2018-07-14T14:19:42.248Z,102020.00
2018-07-14T14:22:12.518Z,102018.00
2018-07-14T14:24:42.844Z,102009.00
2018-07-14T14:27:13.147Z,102006.00
2018-07-14T14:29:43.393Z,102004.00
2018-07-14T14:32:13.713Z,102000.00
2018-07-14T14:34:43.914Z,102001.00
2018-07-14T14:37:14.186Z,102007.00
2018-07-14T14:39:44.434Z,102007.00
2018-07-14T14:42:14.777Z,102001.00
2018-07-14T14:44:45.235Z,102000.00
2018-07-14T14:47:15.536Z,102000.00
2018-07-14T14:49:45.836Z,101995.00
2018-07-14T14:52:16.082Z,101994.00
2018-07-14T14:54:46.421Z,101992.00
2018-07-14T14:57:16.666Z,101995.00
2018-07-14T14:59:46.947Z,101990.00
2018-07-14T15:02:17.263Z,101992.00
2018-07-14T15:04:47.582Z,101990.00
2018-07-14T15:07:17.762Z,101993.00
2018-07-14T15:09:48.247Z,101996.00
2018-07-14T15:12:18.536Z,101994.00
2018-07-14T15:14:48.800Z,101998.00
2018-07-14T15:17:19.081Z,101995.00
2018-07-14T15:19:49.337Z,101986.00
2018-07-14T15:22:19.611Z,101987.00
2018-07-14T15:24:50.004Z,101989.00
2018-07-14T15:27:20.278Z,101987.00
2018-07-14T15:29:50.570Z,101988.00
2018-07-14T15:32:20.922Z,101994.00
2018-07-14T15:34:51.082Z,101989.00
2018-07-14T15:37:21.610Z,101988.00
2018-07-14T15:39:51.930Z,101990.00
2018-07-14T15:42:22.219Z,101987.00
2018-07-14T15:44:52.501Z,101984.00
2018-07-14T15:47:22.810Z,101985.00
2018-07-14T15:49:53.115Z,101981.00
2018-07-14T15:52:23.419Z,101985.00
2018-07-14T15:54:53.642Z,101981.00
2018-07-14T15:57:23.914Z,101983.00
2018-07-14T15:59:54.307Z,101975.00
2018-07-14T16:02:24.602Z,101976.00
2018-07-14T16:04:55.191Z,101971.00
2018-07-14T16:36:43.521Z,101980.00
2018-07-14T16:39:13.809Z,101984.00
2018-07-14T16:41:44.161Z,101984.00
2018-07-14T16:44:14.418Z,101982.00
2018-07-14T16:46:44.927Z,101972.00
2018-07-14T16:49:21.961Z,101971.00
2018-07-14T16:51:52.536Z,101979.00
2018-07-14T16:54:22.849Z,101978.00
2018-07-14T16:56:53.107Z,101976.00
2018-07-14T16:59:23.357Z,101974.00
2018-07-14T17:01:53.641Z,101975.00
2018-07-14T17:04:23.971Z,101969.00
2018-07-14T17:06:54.223Z,101968.00
2018-07-14T17:09:24.453Z,101971.00
2018-07-14T17:11:54.690Z,101974.00
2018-07-14T17:14:25.097Z,101976.00
2018-07-14T17:16:55.318Z,101978.00
2018-07-14T17:19:25.574Z,101981.00
2018-07-14T17:21:56.995Z,101981.00
2018-07-14T17:24:27.271Z,101977.00
2018-07-14T17:26:57.613Z,101979.00
2018-07-14T17:29:27.759Z,101977.00
2018-07-14T17:31:57.985Z,101976.00
2018-07-14T17:34:28.227Z,101977.00
2018-07-14T17:36:58.492Z,101978.00
2018-07-14T17:39:28.694Z,101970.00
2018-07-14T17:41:58.973Z,101969.00
2018-07-14T17:44:29.368Z,101973.00
2018-07-14T17:47:00.088Z,101978.00
2018-07-14T17:49:30.359Z,101973.00
2018-07-14T17:52:00.703Z,101965.00
2018-07-14T17:54:30.947Z,101967.00
2018-07-14T17:57:01.242Z,101969.00
2018-07-14T17:59:31.492Z,101967.00
2018-07-14T18:02:02.591Z,101960.00
2018-07-14T18:04:32.859Z,101970.00
2018-07-14T18:07:03.165Z,101975.00
2018-07-14T18:09:33.819Z,101963.00
2018-07-14T18:12:04.064Z,101970.00
2018-07-14T18:14:34.341Z,101967.00
2018-07-14T18:17:04.602Z,101973.00
2018-07-14T18:19:34.797Z,101973.00
2018-07-14T18:22:06.132Z,101978.00
2018-07-14T18:24:36.444Z,101979.00
2018-07-14T18:27:06.978Z,101980.00
2018-07-14T18:29:37.189Z,101977.00
2018-07-14T18:32:07.435Z,101980.00
2018-07-14T18:34:37.728Z,101980.00
2018-07-14T18:37:08.017Z,101978.00
2018-07-14T18:39:38.289Z,101976.00
2018-07-14T18:42:08.543Z,101976.00
2018-07-14T18:44:38.847Z,101972.00
2018-07-14T18:47:09.108Z,101975.00
2018-07-14T18:49:39.388Z,101977.00
2018-07-14T18:52:09.690Z,101980.00
2018-07-14T18:54:39.978Z,101979.00
2018-07-14T18:57:10.258Z,101982.00
2018-07-14T18:59:40.213Z,101982.00
2018-07-14T19:02:10.512Z,101977.00
2018-07-14T19:04:40.747Z,101982.00
2018-07-14T19:07:11.074Z,101988.00
2018-07-14T19:09:41.312Z,101992.00
2018-07-14T19:12:11.580Z,101993.00
2018-07-14T19:14:42.052Z,101996.00
2018-07-14T19:17:12.332Z,101994.00
2018-07-14T19:19:42.609Z,101999.00
2018-07-14T19:22:12.861Z,102002.00
2018-07-14T19:24:43.071Z,101997.00
2018-07-14T19:27:13.366Z,102003.00
2018-07-14T19:29:43.595Z,102008.00
2018-07-14T19:32:13.805Z,102008.00
2018-07-14T19:34:44.116Z,102009.00
2018-07-14T19:37:14.338Z,102008.00
2018-07-14T19:39:44.645Z,102008.00
2018-07-14T19:42:14.905Z,102010.00
2018-07-14T19:44:50.750Z,102009.00
2018-07-14T19:47:20.979Z,102013.00
2018-07-14T19:49:51.445Z,102013.00
2018-07-14T19:52:21.679Z,102012.00
2018-07-14T19:54:52.100Z,102017.00
2018-07-14T19:57:22.070Z,102009.00
2018-07-14T19:59:52.179Z,102008.00
2018-07-14T20:02:23.500Z,102006.00
2018-07-14T20:04:53.887Z,102008.00
2018-07-14T20:07:24.193Z,102007.00
2018-07-14T20:09:54.517Z,102005.00
2018-07-14T20:12:24.889Z,102017.00
2018-07-14T20:14:55.157Z,102013.00
2018-07-14T20:17:25.405Z,102007.00
2018-07-14T20:19:55.710Z,102010.00
2018-07-14T20:22:26.062Z,102006.00
2018-07-14T20:24:57.417Z,102000.00
2018-07-14T20:27:27.712Z,101997.00
2018-07-14T20:29:57.987Z,102004.00
2018-07-14T20:32:28.799Z,102007.00
2018-07-14T20:34:59.146Z,102004.00
2018-07-14T20:37:29.315Z,102000.00
2018-07-14T20:39:59.642Z,101998.00
2018-07-14T20:42:29.930Z,101996.00
2018-07-14T20:45:00.217Z,101995.00
2018-07-14T20:47:30.448Z,101992.00
2018-07-14T20:50:00.952Z,101994.00
2018-07-14T20:52:31.228Z,101991.00
2018-07-14T20:55:01.903Z,101992.00
2018-07-14T20:57:32.363Z,101992.00
2018-07-14T21:00:02.690Z,101993.00
2018-07-14T21:02:32.987Z,102002.00
2018-07-14T21:05:03.769Z,102001.00
2018-07-14T21:07:33.996Z,101998.00
2018-07-14T21:10:04.308Z,101998.00
2018-07-14T21:12:34.787Z,101999.00
2018-07-14T21:15:04.889Z,101999.00
2018-07-14T21:17:35.129Z,101993.00
2018-07-14T21:20:05.621Z,101992.00
2018-07-14T21:22:35.928Z,102003.00
2018-07-14T21:25:06.766Z,102006.00
2018-07-14T21:27:37.415Z,102003.00
2018-07-14T21:30:07.396Z,102005.00
2018-07-14T21:32:37.550Z,102001.00
2018-07-14T21:35:07.803Z,102003.00
2018-07-14T21:37:38.056Z,102001.00
2018-07-14T21:40:08.423Z,101998.00
2018-07-14T21:42:38.628Z,102006.00
2018-07-14T21:45:08.895Z,102002.00
2018-07-14T21:47:39.174Z,102000.00
2018-07-14T21:50:10.223Z,102001.00
2018-07-14T21:52:40.515Z,102004.00
2018-07-14T21:55:10.878Z,102007.00
2018-07-14T21:57:41.142Z,102005.00
2018-07-14T22:00:22.834Z,102004.00
2018-07-14T22:02:53.200Z,102003.00
2018-07-14T22:05:23.478Z,102006.00
2018-07-14T22:07:53.770Z,102006.00
2018-07-14T22:10:25.035Z,102003.00
2018-07-14T22:12:55.328Z,102007.00
2018-07-14T22:15:25.775Z,102005.00
2018-07-14T22:17:56.015Z,102006.00
2018-07-14T22:20:26.576Z,102007.00
2018-07-14T22:22:56.789Z,102008.00
2018-07-14T22:25:27.067Z,102008.00
2018-07-14T22:27:57.366Z,102011.00
2018-07-14T22:30:27.640Z,102007.00
2018-07-14T22:32:57.943Z,102004.00
2018-07-14T22:35:28.230Z,102003.00
2018-07-14T22:37:58.521Z,102001.00
2018-07-14T22:40:29.157Z,102008.00
2018-07-14T22:42:59.373Z,102007.00
2018-07-14T22:45:30.653Z,102002.00
2018-07-14T22:48:00.932Z,102008.00
2018-07-14T22:50:31.244Z,102011.00
2018-07-14T22:53:01.489Z,102004.00
2018-07-14T22:55:31.778Z,102005.00
2018-07-14T22:58:01.984Z,102003.00
2018-07-14T23:00:32.214Z,102002.00
2018-07-14T23:03:02.793Z,102003.00
2018-07-14T23:05:33.077Z,102003.00
2018-07-14T23:08:03.566Z,102005.00
2018-07-14T23:10:33.782Z,102006.00
2018-07-14T23:13:04.067Z,102004.00
2018-07-14T23:15:34.594Z,102001.00
2018-07-14T23:18:05.075Z,102002.00
2018-07-14T23:20:35.376Z,102000.00
2018-07-14T23:23:05.858Z,102001.00
2018-07-14T23:25:36.250Z,101998.00
2018-07-14T23:28:06.966Z,101996.00
2018-07-14T23:30:37.295Z,101997.00
2018-07-14T23:33:07.541Z,101997.00
2018-07-14T23:35:37.873Z,101995.00
2018-07-14T23:38:08.143Z,101997.00
2018-07-14T23:40:38.390Z,101996.00
2018-07-14T23:43:08.653Z,101992.00
2018-07-14T23:45:38.871Z,101991.00
2018-07-14T23:48:09.077Z,101993.00
2018-07-14T23:50:39.310Z,101992.00
2018-07-14T23:53:09.519Z,101992.00
2018-07-14T23:55:39.790Z,101995.00
2018-07-14T23:58:10.054Z,101993.00
